createdAt,value
2023-02-19T00:00:57.027Z,76.29
2023-02-19T00:01:56.797Z,76.50
2023-02-19T00:02:57.879Z,76.70
2023-02-19T00:03:56.687Z,76.90
2023-02-19T00:04:56.890Z,76.90
2023-02-19T00:05:57.626Z,76.80
2023-02-19T00:06:56.851Z,77.00
2023-02-19T00:07:57.406Z,77.00
2023-02-19T00:08:56.648Z,77.11
2023-02-19T00:09:57.506Z,77.11
2023-02-19T00:10:57.318Z,77.11
2023-02-19T00:11:56.847Z,77.21
2023-02-19T00:12:57.665Z,77.55
2023-02-19T00:13:56.705Z,77.45
2023-02-19T00:14:56.596Z,77.55
2023-02-19T00:15:56.731Z,77.75
2023-02-19T00:16:56.691Z,77.65
2023-02-19T00:17:56.770Z,77.75
2023-02-19T00:18:56.926Z,77.65
2023-02-19T00:19:57.327Z,77.65
2023-02-19T00:20:57.256Z,77.75
2023-02-19T00:21:56.678Z,77.65
2023-02-19T00:22:56.585Z,77.65
2023-02-19T00:23:56.420Z,77.75
2023-02-19T00:24:57.055Z,77.65
2023-02-19T00:26:03.234Z,77.86
2023-02-19T00:26:57.256Z,77.96
2023-02-19T00:27:57.078Z,78.06
2023-02-19T00:28:57.207Z,77.86
2023-02-19T00:29:56.446Z,77.75
2023-02-19T00:30:58.726Z,77.96
2023-02-19T00:31:57.372Z,77.86
2023-02-19T00:32:56.556Z,77.86
2023-02-19T00:33:57.259Z,77.65
2023-02-19T00:34:56.510Z,77.55
2023-02-19T00:35:57.109Z,77.55
2023-02-19T00:36:56.933Z,77.25
2023-02-19T00:37:57.431Z,77.21
2023-02-19T00:38:57.187Z,77.31
2023-02-19T00:39:57.088Z,77.11
2023-02-19T00:40:57.020Z,77.11
2023-02-19T00:41:56.818Z,76.90
2023-02-19T00:42:57.571Z,76.70
2023-02-19T00:43:57.228Z,76.90
2023-02-19T00:44:57.382Z,76.70
2023-02-19T00:45:56.968Z,76.70
2023-02-19T00:46:57.101Z,76.59
2023-02-19T00:47:56.822Z,76.29
2023-02-19T00:48:56.379Z,76.39
2023-02-19T00:49:56.260Z,76.09
2023-02-19T00:50:56.240Z,76.29
2023-02-19T00:51:57.549Z,76.29
2023-02-19T00:52:56.823Z,76.39
2023-02-19T00:53:56.128Z,76.29
2023-02-19T00:54:56.452Z,76.29
2023-02-19T00:55:56.219Z,76.39
2023-02-19T00:56:56.224Z,76.59
2023-02-19T00:57:56.710Z,76.50
2023-02-19T00:58:56.364Z,76.50
2023-02-19T00:59:56.061Z,76.59
2023-02-19T01:00:56.269Z,76.39
2023-02-19T01:01:56.095Z,76.39
2023-02-19T01:02:55.399Z,76.50
2023-02-19T01:03:56.138Z,76.59
2023-02-19T01:04:56.288Z,76.73
2023-02-19T01:05:56.077Z,77.25
2023-02-19T01:06:56.207Z,77.69
2023-02-19T01:07:56.177Z,77.79
2023-02-19T01:08:55.916Z,77.79
2023-02-19T01:09:56.067Z,77.69
2023-02-19T01:10:55.945Z,77.79
2023-02-19T01:11:56.076Z,78.00
2023-02-19T01:12:55.957Z,78.03
2023-02-19T01:13:56.103Z,77.72
2023-02-19T01:14:56.616Z,77.48
2023-02-19T01:15:56.227Z,77.38
2023-02-19T01:16:55.925Z,77.48
2023-02-19T01:17:56.035Z,77.52
2023-02-19T01:18:55.996Z,77.52
2023-02-19T01:19:55.988Z,77.42
2023-02-19T01:20:55.915Z,77.42
2023-02-19T01:21:55.950Z,77.18
2023-02-19T01:22:55.905Z,77.18
2023-02-19T01:23:55.803Z,77.11
2023-02-19T01:24:55.934Z,76.97
2023-02-19T01:25:55.756Z,77.01
2023-02-19T01:26:56.047Z,77.11
2023-02-19T01:27:55.752Z,77.11
2023-02-19T01:28:56.057Z,76.70
2023-02-19T01:29:56.434Z,76.60
2023-02-19T01:30:55.992Z,76.06
2023-02-19T01:31:55.910Z,75.85
2023-02-19T01:32:55.893Z,75.13
2023-02-19T01:33:55.774Z,74.69
2023-02-19T01:34:55.976Z,73.98
2023-02-19T01:35:55.830Z,73.98
2023-02-19T01:36:55.916Z,73.57
2023-02-19T01:37:55.764Z,73.36
2023-02-19T01:38:55.613Z,73.36
2023-02-19T01:39:55.933Z,73.33
2023-02-19T01:40:55.696Z,73.13
2023-02-19T01:41:55.791Z,73.03
2023-02-19T01:42:55.626Z,72.72
2023-02-19T01:43:55.946Z,72.62
2023-02-19T01:44:55.565Z,72.62
2023-02-19T01:45:55.751Z,72.62
2023-02-19T01:46:55.685Z,72.72
2023-02-19T01:47:55.697Z,72.62
2023-02-19T01:48:55.675Z,72.62
2023-02-19T01:49:55.725Z,72.52
2023-02-19T01:50:55.630Z,72.52
2023-02-19T01:51:55.659Z,72.31
2023-02-19T01:52:55.627Z,72.11
2023-02-19T01:53:56.277Z,71.91
2023-02-19T01:54:55.765Z,71.91
2023-02-19T01:55:55.438Z,71.70
2023-02-19T01:56:55.606Z,71.70
2023-02-19T01:57:55.506Z,71.60
2023-02-19T01:58:55.596Z,71.70
2023-02-19T01:59:55.448Z,71.60
2023-02-19T02:00:55.703Z,71.70
2023-02-19T02:01:55.468Z,71.91
2023-02-19T02:02:55.568Z,71.91
2023-02-19T02:03:55.623Z,71.80
2023-02-19T02:04:55.567Z,72.00
2023-02-19T02:05:55.435Z,71.91
2023-02-19T02:06:55.608Z,72.00
2023-02-19T02:07:55.426Z,71.91
2023-02-19T02:08:55.287Z,72.11
2023-02-19T02:09:55.429Z,72.00
2023-02-19T02:10:55.276Z,72.21
2023-02-19T02:11:55.582Z,72.21
2023-02-19T02:12:55.369Z,72.31
2023-02-19T02:13:55.441Z,72.21
2023-02-19T02:14:55.249Z,72.21
2023-02-19T02:15:55.441Z,72.11
2023-02-19T02:16:55.305Z,72.11
2023-02-19T02:17:55.424Z,72.11
2023-02-19T02:18:55.499Z,72.21
2023-02-19T02:19:55.771Z,72.21
2023-02-19T02:20:55.963Z,72.21
2023-02-19T02:21:55.700Z,72.21
2023-02-19T02:22:55.303Z,72.31
2023-02-19T02:23:55.147Z,72.52
2023-02-19T02:24:55.412Z,72.52
2023-02-19T02:25:55.710Z,72.52
2023-02-19T02:26:55.292Z,72.62
2023-02-19T02:27:55.116Z,72.62
2023-02-19T02:28:55.270Z,72.41
2023-02-19T02:29:55.179Z,72.41
2023-02-19T02:30:55.382Z,72.00
2023-02-19T02:31:55.279Z,72.21
2023-02-19T02:32:55.295Z,72.21
2023-02-19T02:33:55.253Z,72.21
2023-02-19T02:34:55.240Z,72.41
2023-02-19T02:35:55.147Z,72.52
2023-02-19T02:36:54.511Z,72.31
2023-02-19T02:37:55.461Z,72.52
2023-02-19T02:38:55.512Z,72.52
2023-02-19T02:39:55.263Z,72.75
2023-02-19T02:40:54.980Z,72.96
2023-02-19T02:41:55.206Z,73.06
2023-02-19T02:42:55.121Z,72.86
2023-02-19T02:43:55.211Z,72.86
2023-02-19T02:44:55.073Z,72.86
2023-02-19T02:45:55.152Z,72.82
2023-02-19T02:46:54.961Z,73.06
2023-02-19T02:47:55.182Z,72.96
2023-02-19T02:48:55.002Z,73.16
2023-02-19T02:49:55.185Z,73.27
2023-02-19T02:50:55.110Z,73.47
2023-02-19T02:51:55.182Z,73.47
2023-02-19T02:52:55.530Z,73.47
2023-02-19T02:53:54.850Z,73.57
2023-02-19T02:54:55.029Z,73.36
2023-02-19T02:55:54.811Z,73.36
2023-02-19T02:56:54.990Z,73.47
2023-02-19T02:57:54.760Z,73.36
2023-02-19T02:58:55.131Z,73.47
2023-02-19T02:59:54.947Z,73.98
2023-02-19T03:00:55.041Z,73.67
2023-02-19T03:01:55.004Z,73.67
2023-02-19T03:02:54.901Z,73.88
2023-02-19T03:03:54.761Z,73.67
2023-02-19T03:04:54.950Z,73.36
2023-02-19T03:05:54.800Z,73.36
2023-02-19T03:06:54.928Z,73.57
2023-02-19T03:07:54.850Z,73.77
2023-02-19T03:08:54.692Z,73.98
2023-02-19T03:09:54.800Z,73.88
2023-02-19T03:10:54.610Z,74.11
2023-02-19T03:11:54.793Z,74.18
2023-02-19T03:12:54.850Z,73.67
2023-02-19T03:13:54.834Z,73.77
2023-02-19T03:14:54.680Z,73.77
2023-02-19T03:15:54.678Z,73.47
2023-02-19T03:16:54.579Z,73.57
2023-02-19T03:17:54.730Z,73.67
2023-02-19T03:18:54.659Z,73.60
2023-02-19T03:19:54.778Z,73.67
2023-02-19T03:20:54.761Z,73.81
2023-02-19T03:21:54.698Z,73.71
2023-02-19T03:22:54.609Z,73.71
2023-02-19T03:23:54.488Z,73.91
2023-02-19T03:24:54.730Z,73.81
2023-02-19T03:25:54.577Z,74.01
2023-02-19T03:26:54.649Z,73.91
2023-02-19T03:27:54.486Z,74.11
2023-02-19T03:28:55.137Z,74.22
2023-02-19T03:29:54.510Z,74.42
2023-02-19T03:30:54.627Z,74.63
2023-02-19T03:31:54.602Z,74.83
2023-02-19T03:32:54.587Z,74.93
2023-02-19T03:33:54.522Z,75.04
2023-02-19T03:34:54.570Z,75.34
2023-02-19T03:35:54.537Z,75.41
2023-02-19T03:36:54.585Z,75.61
2023-02-19T03:37:54.499Z,75.92
2023-02-19T03:38:54.296Z,76.67
2023-02-19T03:39:53.740Z,77.18
2023-02-19T03:40:54.486Z,77.59
2023-02-19T03:41:54.892Z,78.20
2023-02-19T03:42:56.154Z,78.71
2023-02-19T03:43:54.597Z,79.52
2023-02-19T03:44:54.966Z,80.14
2023-02-19T03:45:54.500Z,80.41
2023-02-19T03:46:54.436Z,80.85
2023-02-19T03:47:54.465Z,81.37
2023-02-19T03:48:54.538Z,81.57
2023-02-19T03:49:54.368Z,81.98
2023-02-19T03:50:54.296Z,82.22
2023-02-19T03:51:54.506Z,82.22
2023-02-19T03:52:54.871Z,81.34
2023-02-19T03:53:54.167Z,80.52
2023-02-19T03:54:54.418Z,80.38
2023-02-19T03:55:54.177Z,80.18
2023-02-19T03:56:54.845Z,80.48
2023-02-19T03:57:54.273Z,80.79
2023-02-19T03:58:54.490Z,80.89
2023-02-19T03:59:54.369Z,81.20
2023-02-19T04:00:54.362Z,81.40
2023-02-19T04:01:54.237Z,81.60
2023-02-19T04:02:54.249Z,81.60
2023-02-19T04:03:54.195Z,81.51
2023-02-19T04:04:54.330Z,81.71
2023-02-19T04:05:54.254Z,82.12
2023-02-19T04:06:55.134Z,82.93
2023-02-19T04:07:54.844Z,83.54
2023-02-19T04:08:54.993Z,83.54
2023-02-19T04:09:54.141Z,83.75
2023-02-19T04:10:54.162Z,83.95
2023-02-19T04:11:54.273Z,84.16
2023-02-19T04:12:54.065Z,84.88
2023-02-19T04:13:54.263Z,85.08
2023-02-19T04:14:54.052Z,85.28
2023-02-19T04:15:54.236Z,85.63
2023-02-19T04:16:54.422Z,86.14
2023-02-19T04:17:54.234Z,86.35
2023-02-19T04:18:54.093Z,86.79
2023-02-19T04:19:54.134Z,86.79
2023-02-19T04:20:54.069Z,86.90
2023-02-19T04:21:54.102Z,86.90
2023-02-19T04:22:54.604Z,87.00
2023-02-19T04:23:53.892Z,87.00
2023-02-19T04:24:55.084Z,87.10
2023-02-19T04:25:53.873Z,87.00
2023-02-19T04:26:54.636Z,86.85
2023-02-19T04:27:54.902Z,86.76
2023-02-19T04:28:54.021Z,86.65
2023-02-19T04:29:53.831Z,87.00
2023-02-19T04:30:53.348Z,87.10
2023-02-19T04:31:53.989Z,87.10
2023-02-19T04:32:55.110Z,87.10
2023-02-19T04:33:53.938Z,87.30
2023-02-19T04:34:54.467Z,87.30
2023-02-19T04:35:53.847Z,87.30
2023-02-19T04:36:53.947Z,87.30
2023-02-19T04:37:53.979Z,87.41
2023-02-19T04:38:53.077Z,87.51
2023-02-19T04:39:53.937Z,87.51
2023-02-19T04:40:53.696Z,87.30
2023-02-19T04:41:53.823Z,87.00
2023-02-19T04:42:53.887Z,87.10
2023-02-19T04:43:53.848Z,87.20
2023-02-19T04:44:53.676Z,87.37
2023-02-19T04:45:54.571Z,87.61
2023-02-19T04:46:54.447Z,87.92
2023-02-19T04:47:53.916Z,88.43
2023-02-19T04:48:53.048Z,88.64
2023-02-19T04:49:53.772Z,88.84
2023-02-19T04:50:53.758Z,88.94
2023-02-19T04:51:54.419Z,88.94
2023-02-19T04:52:53.715Z,89.04
2023-02-19T04:53:53.557Z,89.45
2023-02-19T04:54:53.735Z,89.76
2023-02-19T04:55:53.527Z,90.21
2023-02-19T04:56:53.627Z,90.52
2023-02-19T04:57:53.605Z,90.82
2023-02-19T04:58:53.717Z,91.44
2023-02-19T04:59:53.635Z,91.54
2023-02-19T05:00:53.760Z,91.95
2023-02-19T05:01:54.323Z,91.74
2023-02-19T05:02:53.665Z,92.25
2023-02-19T05:03:53.701Z,92.36
2023-02-19T05:04:53.725Z,92.77
2023-02-19T05:05:53.634Z,92.77
2023-02-19T05:06:53.644Z,92.91
2023-02-19T05:08:44.213Z,93.22
2023-02-19T05:09:44.748Z,93.32
2023-02-19T05:10:44.104Z,93.43
2023-02-19T05:11:44.025Z,93.63
2023-02-19T05:12:43.326Z,93.73
2023-02-19T05:13:44.043Z,94.14
2023-02-19T05:14:44.056Z,94.24
2023-02-19T05:15:44.008Z,94.24
2023-02-19T05:16:44.088Z,94.34
2023-02-19T05:17:44.187Z,94.24
2023-02-19T05:18:44.121Z,94.24
2023-02-19T05:19:44.078Z,94.24
2023-02-19T05:20:44.058Z,94.34
2023-02-19T05:21:43.897Z,94.34
2023-02-19T05:22:43.989Z,94.45
2023-02-19T05:23:43.918Z,94.55
2023-02-19T05:24:44.158Z,94.75
2023-02-19T05:25:44.022Z,94.65
2023-02-19T05:26:45.426Z,95.00
2023-02-19T05:27:43.916Z,95.10
2023-02-19T05:28:43.806Z,95.21
2023-02-19T05:29:44.103Z,95.31
2023-02-19T05:30:43.820Z,95.21
2023-02-19T05:31:44.941Z,95.21
2023-02-19T05:32:43.748Z,94.96
2023-02-19T05:33:44.038Z,95.21
2023-02-19T05:34:43.843Z,95.26
2023-02-19T05:35:44.049Z,95.41
2023-02-19T05:36:43.916Z,95.51
2023-02-19T05:37:43.882Z,95.62
2023-02-19T05:38:44.656Z,95.82
2023-02-19T05:39:43.938Z,95.72
2023-02-19T05:40:43.895Z,95.82
2023-02-19T05:41:43.906Z,95.72
2023-02-19T05:42:43.827Z,95.82
2023-02-19T05:43:44.292Z,95.92
2023-02-19T05:44:43.780Z,95.92
2023-02-19T05:45:43.636Z,95.92
2023-02-19T05:46:44.198Z,95.82
2023-02-19T05:47:43.815Z,95.82
2023-02-19T05:48:43.804Z,96.03
2023-02-19T05:49:43.607Z,96.03
2023-02-19T05:50:44.095Z,95.92
2023-02-19T05:51:43.618Z,95.92
2023-02-19T05:52:43.819Z,96.03
2023-02-19T05:53:43.636Z,95.92
2023-02-19T05:54:43.147Z,95.82
2023-02-19T05:55:43.648Z,95.72
2023-02-19T05:56:43.730Z,95.82
2023-02-19T05:57:43.895Z,95.62
2023-02-19T05:58:43.517Z,95.31
2023-02-19T05:59:43.647Z,95.21
2023-02-19T06:00:43.582Z,94.96
2023-02-19T06:01:43.639Z,94.90
2023-02-19T06:02:43.517Z,94.80
2023-02-19T06:03:43.862Z,94.90
2023-02-19T06:04:43.498Z,94.70
2023-02-19T06:05:43.648Z,94.70
2023-02-19T06:06:43.446Z,94.70
2023-02-19T06:07:43.619Z,94.14
2023-02-19T06:08:43.548Z,94.04
2023-02-19T06:09:43.667Z,94.18
2023-02-19T06:10:43.436Z,94.04
2023-02-19T06:11:43.559Z,93.73
2023-02-19T06:12:43.626Z,93.63
2023-02-19T06:13:43.506Z,93.63
2023-02-19T06:14:43.519Z,93.52
2023-02-19T06:15:43.465Z,93.32
2023-02-19T06:16:43.458Z,93.43
2023-02-19T06:17:43.313Z,93.43
2023-02-19T06:18:43.552Z,93.52
2023-02-19T06:19:43.276Z,93.32
2023-02-19T06:20:43.496Z,93.32
2023-02-19T06:21:43.376Z,93.32
2023-02-19T06:22:43.536Z,93.32
2023-02-19T06:23:43.335Z,93.22
2023-02-19T06:24:43.437Z,93.01
2023-02-19T06:25:43.436Z,93.01
2023-02-19T06:26:43.372Z,92.91
2023-02-19T06:27:43.258Z,93.01
2023-02-19T06:28:43.398Z,92.91
2023-02-19T06:29:43.282Z,93.01
2023-02-19T06:30:43.129Z,92.71
2023-02-19T06:31:44.336Z,92.66
2023-02-19T06:32:43.208Z,91.85
2023-02-19T06:33:43.348Z,92.05
2023-02-19T06:34:43.098Z,92.05
2023-02-19T06:35:43.391Z,92.05
2023-02-19T06:36:43.181Z,91.64
2023-02-19T06:37:43.350Z,91.33
2023-02-19T06:38:43.335Z,91.54
2023-02-19T06:39:43.381Z,91.54
2023-02-19T06:40:43.186Z,91.33
2023-02-19T06:41:43.253Z,91.23
2023-02-19T06:42:43.311Z,91.13
2023-02-19T06:43:43.244Z,91.23
2023-02-19T06:44:43.144Z,91.03
2023-02-19T06:45:43.602Z,90.78
2023-02-19T06:46:43.151Z,90.47
2023-02-19T06:47:43.062Z,90.27
2023-02-19T06:48:43.226Z,90.47
2023-02-19T06:49:43.153Z,89.97
2023-02-19T06:50:43.172Z,89.97
2023-02-19T06:51:42.942Z,90.06
2023-02-19T06:52:43.176Z,89.97
2023-02-19T06:53:43.177Z,89.65
2023-02-19T06:54:43.124Z,89.56
2023-02-19T06:55:42.993Z,89.51
2023-02-19T06:56:45.471Z,89.31
2023-02-19T06:57:42.994Z,89.11
2023-02-19T06:58:43.145Z,89.41
2023-02-19T06:59:43.003Z,89.51
2023-02-19T07:00:42.820Z,89.20
2023-02-19T07:01:43.005Z,89.20
2023-02-19T07:02:42.804Z,89.65
2023-02-19T07:03:43.190Z,89.31
2023-02-19T07:04:42.981Z,88.79
2023-02-19T07:05:42.982Z,88.70
2023-02-19T07:06:42.786Z,89.00
2023-02-19T07:07:42.919Z,88.39
2023-02-19T07:08:42.831Z,87.94
2023-02-19T07:09:42.981Z,88.14
2023-02-19T07:10:42.781Z,87.63
2023-02-19T07:11:42.898Z,86.82
2023-02-19T07:12:42.810Z,86.51
2023-02-19T07:13:43.419Z,86.82
2023-02-19T07:14:42.790Z,87.12
2023-02-19T07:15:42.929Z,86.67
2023-02-19T07:16:42.886Z,86.67
2023-02-19T07:17:42.809Z,86.71
2023-02-19T07:18:42.900Z,86.47
2023-02-19T07:19:42.662Z,85.86
2023-02-19T07:20:43.018Z,85.86
2023-02-19T07:21:42.697Z,85.51
2023-02-19T07:22:43.329Z,85.65
2023-02-19T07:23:42.677Z,85.75
2023-02-19T07:24:42.788Z,85.75
2023-02-19T07:25:42.692Z,85.92
2023-02-19T07:26:42.865Z,84.69
2023-02-19T07:27:42.676Z,84.90
2023-02-19T07:28:42.666Z,84.90
2023-02-19T07:29:42.664Z,85.00
2023-02-19T07:30:42.786Z,85.21
2023-02-19T07:31:42.734Z,85.21
2023-02-19T07:32:42.448Z,84.80
2023-02-19T07:33:42.697Z,84.39
2023-02-19T07:34:42.486Z,85.00
2023-02-19T07:35:42.638Z,85.21
2023-02-19T07:36:42.477Z,85.10
2023-02-19T07:37:42.728Z,84.59
2023-02-19T07:38:42.468Z,84.69
2023-02-19T07:39:42.658Z,84.55
2023-02-19T07:40:42.488Z,84.11
2023-02-19T07:41:42.639Z,84.27
2023-02-19T07:42:42.551Z,83.56
2023-02-19T07:43:42.606Z,83.31
2023-02-19T07:44:42.610Z,82.80
2023-02-19T07:45:42.547Z,82.90
2023-02-19T07:46:42.440Z,82.80
2023-02-19T07:47:42.353Z,82.80
2023-02-19T07:48:42.638Z,81.74
2023-02-19T07:49:42.394Z,82.09
2023-02-19T07:50:42.581Z,81.74
2023-02-19T07:51:42.314Z,82.29
2023-02-19T07:52:42.561Z,83.51
2023-02-19T07:53:42.371Z,82.70
2023-02-19T07:54:42.440Z,82.29
2023-02-19T07:55:42.324Z,82.74
2023-02-19T07:56:42.382Z,83.25
2023-02-19T07:57:42.353Z,83.29
2023-02-19T07:58:42.601Z,83.39
2023-02-19T07:59:42.413Z,83.94
2023-02-19T08:00:42.383Z,83.33
2023-02-19T08:01:42.299Z,83.53
2023-02-19T08:02:42.184Z,83.53
2023-02-19T08:03:42.407Z,84.66
2023-02-19T08:04:42.248Z,84.20
2023-02-19T08:05:42.363Z,83.39
2023-02-19T08:06:42.338Z,83.29
2023-02-19T08:07:42.416Z,84.00
2023-02-19T08:08:42.156Z,84.04
2023-02-19T08:09:42.284Z,84.14
2023-02-19T08:10:42.224Z,83.73
2023-02-19T08:11:42.327Z,83.70
2023-02-19T08:12:42.674Z,84.04
2023-02-19T08:13:42.255Z,84.14
2023-02-19T08:14:42.133Z,84.00
2023-02-19T08:15:42.322Z,83.29
2023-02-19T08:16:43.501Z,83.84
2023-02-19T08:17:42.232Z,83.73
2023-02-19T08:18:42.193Z,84.31
2023-02-19T08:19:42.003Z,83.70
2023-02-19T08:20:42.177Z,83.80
2023-02-19T08:21:42.141Z,83.59
2023-02-19T08:22:42.183Z,83.04
2023-02-19T08:23:41.995Z,82.78
2023-02-19T08:24:42.212Z,83.18
2023-02-19T08:25:42.144Z,82.98
2023-02-19T08:26:42.370Z,82.47
2023-02-19T08:27:42.000Z,82.57
2023-02-19T08:28:42.053Z,83.59
2023-02-19T08:29:42.032Z,82.98
2023-02-19T08:30:42.180Z,82.84
2023-02-19T08:31:42.162Z,82.74
2023-02-19T08:32:42.212Z,82.13
2023-02-19T08:33:42.001Z,82.33
2023-02-19T08:35:23.430Z,82.40
2023-02-19T08:35:42.505Z,81.74
2023-02-19T08:36:42.237Z,80.22
2023-02-19T08:37:42.282Z,80.52
2023-02-19T08:38:42.251Z,81.13
2023-02-19T08:39:42.020Z,81.74
2023-02-19T08:40:41.841Z,81.95
2023-02-19T08:41:42.126Z,79.98
2023-02-19T08:42:41.848Z,80.11
2023-02-19T08:43:42.031Z,81.13
2023-02-19T08:44:41.940Z,81.68
2023-02-19T08:45:41.951Z,81.99
2023-02-19T08:46:41.834Z,81.74
2023-02-19T08:47:42.328Z,80.63
2023-02-19T08:48:41.959Z,81.24
2023-02-19T08:49:41.708Z,81.27
2023-02-19T08:50:41.857Z,80.97
2023-02-19T08:51:41.748Z,81.79
2023-02-19T08:52:41.790Z,81.93
2023-02-19T08:53:41.666Z,81.93
2023-02-19T08:54:41.928Z,81.21
2023-02-19T08:55:41.728Z,81.17
2023-02-19T08:56:41.889Z,80.36
2023-02-19T08:57:41.737Z,80.73
2023-02-19T08:58:41.929Z,79.68
2023-02-19T08:59:41.727Z,76.86
2023-02-19T09:00:41.914Z,69.51
2023-02-19T09:01:41.757Z,68.26
2023-02-19T09:02:41.817Z,63.44
2023-02-19T09:03:40.994Z,61.19
2023-02-19T09:04:41.536Z,62.56
2023-02-19T09:05:41.785Z,65.55
2023-02-19T09:06:41.869Z,68.05
2023-02-19T09:07:41.687Z,69.91
2023-02-19T09:08:41.559Z,68.26
2023-02-19T09:09:41.696Z,65.53
2023-02-19T09:10:41.625Z,62.04
2023-02-19T09:11:41.675Z,59.66
2023-02-19T09:12:41.615Z,57.84
2023-02-19T09:13:41.666Z,57.89
2023-02-19T09:14:41.516Z,55.84
2023-02-19T09:15:41.617Z,56.77
2023-02-19T09:16:41.596Z,57.68
2023-02-19T09:17:41.638Z,55.91
2023-02-19T09:18:41.826Z,54.28
2023-02-19T09:19:41.392Z,54.13
2023-02-19T09:20:41.516Z,52.89
2023-02-19T09:21:41.437Z,53.42
2023-02-19T09:22:41.588Z,54.66
2023-02-19T09:23:41.459Z,52.62
2023-02-19T09:24:41.528Z,51.59
2023-02-19T09:25:41.627Z,51.41
2023-02-19T09:26:41.562Z,51.16
2023-02-19T09:27:41.458Z,50.89
2023-02-19T09:28:41.974Z,51.59
2023-02-19T09:29:41.938Z,51.01
2023-02-19T09:30:41.633Z,50.89
2023-02-19T09:31:41.441Z,51.31
2023-02-19T09:32:41.670Z,50.78
2023-02-19T09:33:41.704Z,50.15
2023-02-19T09:34:41.469Z,49.68
2023-02-19T09:35:41.480Z,49.85
2023-02-19T09:36:41.200Z,50.00
2023-02-19T09:37:41.370Z,49.77
2023-02-19T09:38:41.250Z,50.38
2023-02-19T09:39:41.360Z,48.63
2023-02-19T09:40:41.731Z,49.63
2023-02-19T09:41:41.360Z,48.18
2023-02-19T09:42:41.212Z,47.80
2023-02-19T09:43:41.722Z,48.18
2023-02-19T09:44:41.170Z,46.73
2023-02-19T09:45:41.251Z,47.25
2023-02-19T09:46:41.230Z,47.09
2023-02-19T09:47:41.270Z,48.08
2023-02-19T09:48:41.196Z,47.35
2023-02-19T09:49:41.359Z,45.80
2023-02-19T09:50:41.184Z,45.40
2023-02-19T09:51:41.212Z,45.42
2023-02-19T09:52:41.200Z,46.07
2023-02-19T09:53:41.080Z,46.65
2023-02-19T09:54:41.159Z,44.30
2023-02-19T09:55:41.269Z,42.60
2023-02-19T09:56:41.236Z,40.40
2023-02-19T09:57:41.150Z,38.54
2023-02-19T09:58:41.578Z,40.18
2023-02-19T09:59:41.538Z,38.39
2023-02-19T10:00:41.186Z,40.94
2023-02-19T10:01:41.320Z,38.92
2023-02-19T10:02:41.136Z,40.06
2023-02-19T10:03:41.224Z,39.15
2023-02-19T10:04:41.099Z,39.06
2023-02-19T10:05:40.992Z,39.06
2023-02-19T10:06:41.157Z,36.90
2023-02-19T10:07:41.356Z,36.10
2023-02-19T10:08:40.890Z,38.12
2023-02-19T10:09:41.013Z,37.70
2023-02-19T10:10:41.057Z,38.68
2023-02-19T10:11:40.895Z,38.82
2023-02-19T10:12:40.829Z,36.85
2023-02-19T10:13:41.945Z,35.01
2023-02-19T10:14:40.886Z,35.52
2023-02-19T10:15:41.001Z,35.54
2023-02-19T10:16:40.879Z,37.12
2023-02-19T10:17:41.115Z,40.03
2023-02-19T10:18:40.850Z,41.79
2023-02-19T10:19:41.028Z,43.70
2023-02-19T10:20:40.957Z,46.85
2023-02-19T10:21:40.845Z,48.65
2023-02-19T10:22:40.856Z,51.23
2023-02-19T10:23:40.745Z,51.15
2023-02-19T10:24:40.776Z,50.34
2023-02-19T10:25:40.755Z,50.72
2023-02-19T10:26:40.856Z,46.62
2023-02-19T10:27:40.807Z,48.58
2023-02-19T10:28:40.926Z,49.36
2023-02-19T10:29:40.727Z,47.45
2023-02-19T10:30:40.818Z,46.65
2023-02-19T10:31:40.919Z,47.90
2023-02-19T10:32:40.907Z,49.29
2023-02-19T10:33:40.807Z,45.13
2023-02-19T10:34:40.797Z,43.24
2023-02-19T10:35:40.950Z,43.02
2023-02-19T10:36:40.885Z,42.74
2023-02-19T10:37:41.078Z,41.43
2023-02-19T10:38:40.884Z,42.33
2023-02-19T10:39:40.727Z,40.79
2023-02-19T10:40:40.798Z,41.19
2023-02-19T10:41:42.460Z,41.33
2023-02-19T10:42:40.638Z,40.81
2023-02-19T10:43:40.835Z,41.25
2023-02-19T10:44:40.568Z,43.87
2023-02-19T10:45:40.720Z,43.88
2023-02-19T10:46:40.733Z,45.84
2023-02-19T10:47:40.666Z,45.36
2023-02-19T10:48:40.995Z,46.59
2023-02-19T10:49:40.842Z,47.44
2023-02-19T10:50:40.580Z,48.02
2023-02-19T10:51:40.588Z,48.15
2023-02-19T10:52:40.528Z,49.10
2023-02-19T10:53:40.409Z,50.24
2023-02-19T10:54:40.539Z,50.37
2023-02-19T10:55:40.589Z,50.49
2023-02-19T10:56:40.567Z,50.38
2023-02-19T10:57:40.506Z,50.89
2023-02-19T10:58:40.658Z,51.20
2023-02-19T10:59:40.348Z,50.89
2023-02-19T11:00:40.600Z,50.59
2023-02-19T11:01:40.555Z,51.17
2023-02-19T11:02:40.729Z,49.86
2023-02-19T11:03:40.427Z,50.29
2023-02-19T11:04:40.589Z,50.92
2023-02-19T11:05:40.367Z,50.23
2023-02-19T11:06:40.441Z,51.65
2023-02-19T11:07:40.679Z,51.45
2023-02-19T11:08:40.216Z,51.86
2023-02-19T11:09:40.416Z,52.39
2023-02-19T11:10:40.248Z,52.97
2023-02-19T11:11:40.439Z,52.28
2023-02-19T11:12:40.830Z,52.59
2023-02-19T11:13:40.496Z,53.80
2023-02-19T11:14:40.216Z,53.19
2023-02-19T11:15:40.507Z,53.02
2023-02-19T11:16:40.298Z,52.00
2023-02-19T11:17:40.397Z,53.63
2023-02-19T11:18:40.206Z,53.55
2023-02-19T11:19:40.404Z,53.47
2023-02-19T11:20:40.996Z,53.78
2023-02-19T11:21:40.929Z,54.08
2023-02-19T11:22:40.292Z,54.39
2023-02-19T11:23:40.106Z,54.39
2023-02-19T11:24:40.356Z,54.90
2023-02-19T11:25:40.141Z,54.18
2023-02-19T11:26:40.267Z,54.18
2023-02-19T11:27:40.187Z,54.41
2023-02-19T11:28:40.302Z,54.00
2023-02-19T11:29:40.065Z,54.41
2023-02-19T11:30:40.436Z,54.00
2023-02-19T11:31:40.235Z,54.61
2023-02-19T11:32:40.165Z,54.92
2023-02-19T11:33:40.076Z,54.41
2023-02-19T11:34:40.168Z,54.72
2023-02-19T11:35:40.356Z,54.84
2023-02-19T11:36:40.127Z,54.74
2023-02-19T11:37:40.159Z,54.87
2023-02-19T11:38:39.899Z,54.87
2023-02-19T11:39:40.066Z,55.27
2023-02-19T11:40:40.037Z,55.78
2023-02-19T11:41:40.085Z,55.07
2023-02-19T11:42:39.940Z,55.07
2023-02-19T11:43:40.150Z,55.10
2023-02-19T11:44:40.048Z,55.30
2023-02-19T11:45:40.251Z,55.40
2023-02-19T11:46:39.909Z,55.71
2023-02-19T11:47:40.005Z,55.30
2023-02-19T11:48:39.921Z,55.51
2023-02-19T11:49:40.114Z,55.91
2023-02-19T11:50:39.872Z,55.91
2023-02-19T11:51:40.341Z,56.42
2023-02-19T11:52:39.912Z,56.62
2023-02-19T11:53:40.490Z,57.23
2023-02-19T11:54:39.971Z,56.52
2023-02-19T11:55:39.972Z,56.52
2023-02-19T11:56:40.125Z,56.93
2023-02-19T11:57:39.840Z,56.52
2023-02-19T11:58:40.022Z,56.62
2023-02-19T11:59:39.732Z,56.93
2023-02-19T12:00:39.932Z,57.64
2023-02-19T12:01:40.178Z,57.64
2023-02-19T12:02:40.403Z,56.82
2023-02-19T12:03:40.108Z,56.12
2023-02-19T12:04:40.022Z,56.73
2023-02-19T12:05:39.921Z,56.62
2023-02-19T12:06:39.837Z,56.62
2023-02-19T12:07:40.097Z,57.13
2023-02-19T12:08:39.959Z,57.26
2023-02-19T12:09:40.068Z,57.67
2023-02-19T12:10:39.618Z,57.87
2023-02-19T12:11:39.814Z,58.48
2023-02-19T12:12:39.647Z,58.69
2023-02-19T12:13:39.842Z,58.69
2023-02-19T12:14:39.697Z,58.48
2023-02-19T12:15:39.800Z,58.69
2023-02-19T12:16:39.672Z,57.87
2023-02-19T12:17:39.740Z,58.04
2023-02-19T12:18:39.575Z,57.95
2023-02-19T12:19:39.799Z,57.95
2023-02-19T12:20:39.616Z,57.84
2023-02-19T12:21:39.659Z,58.45
2023-02-19T12:22:39.597Z,58.65
2023-02-19T12:23:39.707Z,58.65
2023-02-19T12:24:39.757Z,58.35
2023-02-19T12:25:40.998Z,58.15
2023-02-19T12:26:39.667Z,57.84
2023-02-19T12:27:39.506Z,58.25
2023-02-19T12:28:39.623Z,58.15
2023-02-19T12:29:39.889Z,57.95
2023-02-19T12:30:39.650Z,58.25
2023-02-19T12:31:39.546Z,58.76
2023-02-19T12:32:39.709Z,59.30
2023-02-19T12:33:39.643Z,59.19
2023-02-19T12:34:39.916Z,58.69
2023-02-19T12:35:39.545Z,58.99
2023-02-19T12:36:39.596Z,58.78
2023-02-19T12:37:39.568Z,58.78
2023-02-19T12:38:39.510Z,59.09
2023-02-19T12:39:39.376Z,58.69
2023-02-19T12:40:39.285Z,58.89
2023-02-19T12:41:39.424Z,58.99
2023-02-19T12:42:39.327Z,59.39
2023-02-19T12:43:39.678Z,59.19
2023-02-19T12:44:39.391Z,58.69
2023-02-19T12:45:39.540Z,58.38
2023-02-19T12:46:39.285Z,58.48
2023-02-19T12:47:39.469Z,58.48
2023-02-19T12:48:39.405Z,58.38
2023-02-19T12:49:39.946Z,58.58
2023-02-19T12:50:39.863Z,58.48
2023-02-19T12:51:39.350Z,58.48
2023-02-19T12:52:39.289Z,58.48
2023-02-19T12:53:39.458Z,58.38